Time;durP1;ratioP1;P1;durP2;ratioP2;P2;SDS_P1;SDS_P2;PMS_P1;PMS_P2;Temp;Humidity;BMP_temperature;BMP_pressure;BME280_temperature;BME280_humidity;BME280_pressure;Samples;Min_cycle;Max_cycle;Signal;HPM_P1;HPM_P2
2021/06/06 00:00:54;;;;;;;;;9.00;9.00;;;;;27.67;64.88;98461.34;6246199;22;8819;-75
2021/06/06 00:03:30;;;;;;;;;8.50;8.50;;;;;27.69;64.71;98467.91;6246256;22;8898;-75
2021/06/06 00:06:10;;;;;;;;;9.25;9.25;;;;;27.76;66.66;98470.63;6245886;23;8805;-75
2021/06/06 00:08:40;;;;;;;;;9.75;9.75;;;;;27.73;67.06;98476.06;6246289;22;8781;-75
2021/06/06 00:11:17;;;;;;;;;9.50;9.50;;;;;27.73;65.53;98481.47;6246201;22;8797;-75
2021/06/06 00:13:48;;;;;;;;;10.50;8.50;;;;;27.70;66.40;98487.66;6246444;22;8812;-75
2021/06/06 00:16:27;;;;;;;;;11.25;11.25;;;;;27.72;65.86;98490.75;6246058;22;8907;-75
2021/06/06 00:18:56;;;;;;;;;7.00;7.00;;;;;27.77;65.77;98493.09;6246196;22;8828;-75
2021/06/06 00:21:27;;;;;;;;;13.25;12.50;;;;;27.85;67.70;98495.41;6246079;22;8803;-75
2021/06/06 00:23:56;;;;;;;;;10.25;9.00;;;;;27.93;66.01;98496.97;6246026;22;8824;-76
2021/06/06 00:26:26;;;;;;;;;8.50;8.50;;;;;27.97;65.30;98501.59;6246003;22;9589;-76
2021/06/06 00:28:55;;;;;;;;;11.50;11.50;;;;;27.98;67.53;98506.63;6246112;22;8798;-75
2021/06/06 00:31:24;;;;;;;;;10.75;10.75;;;;;27.99;66.88;98505.47;6246963;22;8814;-75
2021/06/06 00:33:53;;;;;;;;;12.00;12.00;;;;;27.98;67.36;98503.16;6253527;22;8886;-75
2021/06/06 00:36:23;;;;;;;;;16.75;15.75;;;;;28.06;66.79;98515.53;6273468;22;9618;-75
2021/06/06 00:38:52;;;;;;;;;8.50;8.50;;;;;28.06;66.93;98510.13;6247245;22;8882;-75
2021/06/06 00:41:24;;;;;;;;;8.00;8.00;;;;;28.10;66.29;98505.47;6245891;22;8799;-75
2021/06/06 00:43:53;;;;;;;;;12.75;11.50;;;;;28.27;65.65;98518.25;6245687;22;8914;-75
2021/06/06 00:46:25;;;;;;;;;8.50;8.50;;;;;28.33;65.97;98515.94;6244230;23;8789;-75
2021/06/06 00:48:55;;;;;;;;;10.00;10.00;;;;;28.41;66.75;98520.19;6245753;23;9604;-75
2021/06/06 00:51:39;;;;;;;;;10.25;10.25;;;;;28.48;66.24;98517.47;6245652;22;8800;-76
2021/06/06 00:54:21;;;;;;;;;8.50;8.50;;;;;28.43;64.15;98505.06;6245767;22;8831;-75
2021/06/06 00:56:54;;;;;;;;;11.75;11.00;;;;;28.53;65.11;98512.41;6245954;22;8784;-75
2021/06/06 00:59:25;;;;;;;;;8.00;8.00;;;;;28.56;62.91;98521.69;6245681;22;8934;-75
2021/06/06 01:01:54;;;;;;;;;8.25;8.25;;;;;28.58;64.73;98522.09;6245679;22;8789;-75
2021/06/06 01:04:24;;;;;;;;;10.25;10.25;;;;;28.58;65.52;98531.00;6245661;22;8810;-75
2021/06/06 01:06:54;;;;;;;;;8.75;8.75;;;;;28.65;64.96;98527.47;6245419;22;8802;-75
2021/06/06 01:09:25;;;;;;;;;11.75;11.75;;;;;28.71;65.58;98533.25;6245933;22;8792;-75
2021/06/06 01:12:20;;;;;;;;;6.00;6.00;;;;;28.76;64.36;98535.56;6245696;22;8811;-75
2021/06/06 01:15:15;;;;;;;;;15.25;13.75;;;;;28.85;64.21;98541.38;6245622;22;8801;-74
2021/06/06 01:17:58;;;;;;;;;9.00;9.00;;;;;28.85;64.91;98544.88;6245584;22;8788;-75
2021/06/06 01:20:52;;;;;;;;;13.50;13.50;;;;;28.77;65.81;98537.13;6243926;23;8894;-75
2021/06/06 01:23:45;;;;;;;;;5.75;5.75;;;;;28.88;63.74;98559.59;6245507;22;8800;-75
2021/06/06 01:26:37;;;;;;;;;9.50;9.50;;;;;28.86;64.16;98546.44;6245379;22;8911;-75
2021/06/06 01:29:33;;;;;;;;;8.00;8.00;;;;;28.92;63.30;98552.22;6245411;22;8788;-75
2021/06/06 01:32:17;;;;;;;;;8.75;8.75;;;;;29.05;62.92;98566.91;6245156;22;8835;-75
2021/06/06 01:35:03;;;;;;;;;9.25;9.25;;;;;29.09;62.73;98567.69;6245377;22;8814;-75
2021/06/06 01:37:37;;;;;;;;;11.25;11.00;;;;;29.15;62.86;98571.53;6268991;22;8796;-76
2021/06/06 01:40:14;;;;;;;;;14.25;14.25;;;;;29.19;64.20;98564.16;6245204;22;8788;-74
2021/06/06 01:42:48;;;;;;;;;7.50;7.50;;;;;29.15;62.06;98568.81;6245738;22;9445;-74
2021/06/06 01:45:26;;;;;;;;;11.75;10.25;;;;;29.15;62.17;98576.97;6245137;22;8926;-75
2021/06/06 01:48:00;;;;;;;;;9.50;9.50;;;;;29.18;62.45;98578.91;6245269;22;8804;-74
2021/06/06 01:50:37;;;;;;;;;7.50;7.50;;;;;29.15;62.00;98573.47;6245146;22;8796;-75
2021/06/06 01:53:08;;;;;;;;;13.50;13.50;;;;;29.15;61.99;98582.41;6244940;22;8800;-75
2021/06/06 01:55:44;;;;;;;;;2.00;2.00;;;;;29.14;62.14;98586.28;6244804;22;8974;-74
2021/06/06 01:58:14;;;;;;;;;10.75;10.75;;;;;29.17;62.61;98593.66;6245073;22;8792;-75
2021/06/06 02:00:48;;;;;;;;;7.50;7.50;;;;;29.19;62.18;98595.97;6245086;22;8796;-75
2021/06/06 02:03:18;;;;;;;;;12.00;12.00;;;;;29.19;61.88;98596.75;6244423;22;8907;-78
2021/06/06 02:05:49;;;;;;;;;6.75;6.75;;;;;29.28;61.81;98600.97;6243153;23;8835;-76
2021/06/06 02:08:21;;;;;;;;;13.00;13.00;;;;;29.29;62.86;98597.09;6244870;22;8888;-77
2021/06/06 02:10:56;;;;;;;;;12.25;12.25;;;;;29.39;64.11;98610.63;6243456;23;8804;-76
2021/06/06 02:13:50;;;;;;;;;13.50;13.00;;;;;29.38;62.49;98603.66;6244884;22;8812;-74
2021/06/06 02:16:24;;;;;;;;;9.50;9.50;;;;;29.35;62.31;98592.78;6244505;22;8821;-76
2021/06/06 02:18:54;;;;;;;;;14.75;12.75;;;;;29.38;63.71;98602.88;6244706;22;8876;-74
2021/06/06 02:21:23;;;;;;;;;10.00;10.00;;;;;29.37;62.18;98591.22;6244530;22;8806;-72
2021/06/06 02:23:53;;;;;;;;;12.50;12.50;;;;;29.42;64.36;98592.78;6244550;22;8820;-75
2021/06/06 02:26:47;;;;;;;;;12.75;12.75;;;;;29.48;62.34;98589.28;6244354;22;8910;-73
2021/06/06 02:29:25;;;;;;;;;9.25;9.25;;;;;29.55;63.15;98593.91;6244390;22;8919;-73
2021/06/06 02:32:17;;;;;;;;;11.75;11.75;;;;;29.58;63.70;98578.72;6244830;22;8804;-73
2021/06/06 02:35:01;;;;;;;;;11.75;11.75;;;;;29.60;63.00;98579.88;6244628;22;8866;-73
2021/06/06 02:37:44;;;;;;;;;12.25;12.25;;;;;29.64;62.55;98582.59;6244341;22;8935;-74
2021/06/06 02:40:22;;;;;;;;;13.00;13.00;;;;;29.74;62.96;98585.22;6242955;23;8784;-72
2021/06/06 02:42:54;;;;;;;;;13.25;13.00;;;;;29.78;63.06;98583.25;6244533;22;9534;-73
2021/06/06 02:45:27;;;;;;;;;10.50;10.50;;;;;29.82;62.24;98589.47;6244274;22;8858;-73
2021/06/06 02:48:25;;;;;;;;;11.75;11.75;;;;;29.78;62.48;98572.38;6244449;22;8808;-73
2021/06/06 02:51:00;;;;;;;;;13.50;13.50;;;;;29.88;62.63;98570.78;6243779;22;8797;-73
2021/06/06 02:53:35;;;;;;;;;7.00;7.00;;;;;30.02;61.04;98572.63;6244335;22;9671;-73
2021/06/06 02:56:13;;;;;;;;;12.75;11.75;;;;;30.10;61.22;98563.22;6244399;22;8793;-73
2021/06/06 02:58:51;;;;;;;;;7.75;7.75;;;;;30.23;60.70;98569.72;6243833;22;8895;-73
2021/06/06 03:01:35;;;;;;;;;10.75;10.75;;;;;30.29;60.95;98565.38;6244108;22;8935;-73
2021/06/06 03:04:09;;;;;;;;;11.00;11.00;;;;;30.33;60.49;98551.75;6243974;22;8792;-72
2021/06/06 03:06:53;;;;;;;;;10.50;10.50;;;;;30.35;60.73;98546.69;6244557;22;9474;-73
2021/06/06 03:09:23;;;;;;;;;10.75;10.75;;;;;30.46;61.05;98542.69;6246064;22;8820;-73
2021/06/06 03:11:54;;;;;;;;;9.00;9.00;;;;;30.53;60.74;98547.28;6245952;22;8893;-73
2021/06/06 03:14:26;;;;;;;;;11.75;11.75;;;;;30.59;60.36;98532.06;6243893;22;8878;-73
2021/06/06 03:17:03;;;;;;;;;9.25;9.25;;;;;30.63;60.82;98526.59;6245386;22;8962;-75
2021/06/06 03:19:38;;;;;;;;;11.00;11.00;;;;;30.71;60.03;98533.50;6244398;23;8918;-74
2021/06/06 03:22:11;;;;;;;;;9.25;9.25;;;;;30.74;59.62;98536.19;6245332;22;8805;-74
2021/06/06 03:24:48;;;;;;;;;12.50;12.50;;;;;30.80;60.25;98531.84;6245929;22;8822;-74
2021/06/06 03:27:20;;;;;;;;;5.75;5.75;;;;;30.85;59.62;98535.28;6245975;22;8832;-73
2021/06/06 03:30:16;;;;;;;;;10.75;10.75;;;;;30.87;59.53;98535.66;6245623;22;9615;-74
2021/06/06 03:32:47;;;;;;;;;8.00;8.00;;;;;30.91;59.34;98530.94;6245642;22;8890;-74
2021/06/06 03:35:16;;;;;;;;;10.25;10.25;;;;;30.94;59.19;98522.72;6244240;23;8793;-75
2021/06/06 03:37:45;;;;;;;;;9.25;8.50;;;;;31.04;58.61;98532.72;6245390;22;8808;-73
2021/06/06 03:40:16;;;;;;;;;1.00;1.00;;;;;31.11;58.09;98527.19;6244130;23;8800;-75
2021/06/06 03:42:45;;;;;;;;;14.50;14.50;;;;;31.14;59.04;98531.84;6268922;22;8797;-73
2021/06/06 03:45:17;;;;;;;;;21.75;21.75;;;;;31.18;59.21;98536.47;6245141;22;8895;-74
2021/06/06 03:47:46;;;;;;;;;20.00;20.00;;;;;31.20;59.07;98534.13;6246005;22;8894;-74
2021/06/06 03:50:18;;;;;;;;;11.75;11.75;;;;;31.22;58.57;98532.50;6245632;22;8812;-74
2021/06/06 03:52:46;;;;;;;;;13.75;13.50;;;;;31.23;58.42;98536.00;6244289;23;8903;-75
2021/06/06 03:55:19;;;;;;;;;13.25;13.25;;;;;31.26;58.65;98543.34;6245623;22;8804;-74
2021/06/06 03:57:48;;;;;;;;;11.25;11.25;;;;;31.25;58.68;98545.28;6245725;22;8966;-74
2021/06/06 04:00:31;;;;;;;;;14.75;14.25;;;;;31.29;58.14;98542.53;6245334;22;8955;-74
2021/06/06 04:03:04;;;;;;;;;9.00;9.00;;;;;31.31;58.06;98538.22;6246544;22;8827;-74
2021/06/06 04:05:34;;;;;;;;;9.50;9.00;;;;;31.33;58.39;98538.56;6246115;22;8856;-74
2021/06/06 04:08:06;;;;;;;;;13.25;12.50;;;;;31.37;58.25;98535.78;6245527;22;8788;-74
2021/06/06 04:10:36;;;;;;;;;10.75;10.75;;;;;31.39;58.05;98539.66;6244910;22;8802;-74
2021/06/06 04:13:06;;;;;;;;;9.25;9.25;;;;;31.42;58.27;98540.78;6244811;22;8804;-73
2021/06/06 04:15:36;;;;;;;;;12.75;12.75;;;;;31.42;58.11;98525.19;6244734;22;8838;-74
2021/06/06 04:18:18;;;;;;;;;9.00;9.00;;;;;31.43;58.13;98524.03;6244800;22;8839;-74
2021/06/06 04:20:49;;;;;;;;;12.75;12.75;;;;;31.52;57.92;98520.78;6245025;22;8805;-73
2021/06/06 04:23:19;;;;;;;;;11.50;11.50;;;;;31.61;57.62;98515.59;6245141;22;8909;-74
2021/06/06 04:25:51;;;;;;;;;10.25;10.25;;;;;31.70;57.04;98524.03;6244918;22;8816;-74
2021/06/06 04:28:22;;;;;;;;;9.50;9.50;;;;;31.72;56.86;98518.94;6268404;22;9498;-74
2021/06/06 04:30:52;;;;;;;;;9.00;9.00;;;;;31.86;56.86;98523.41;6244404;22;8800;-74
2021/06/06 04:33:22;;;;;;;;;8.60;7.80;;;;;31.92;55.73;98515.53;6242326;23;8883;-77
2021/06/06 04:35:52;;;;;;;;;7.80;7.80;;;;;32.02;55.87;98506.38;6267751;22;8788;-74
2021/06/06 04:38:25;;;;;;;;;6.60;6.60;;;;;32.14;54.16;98503.06;6244134;22;8804;-75
2021/06/06 04:40:58;;;;;;;;;9.60;9.60;;;;;32.28;54.89;98502.06;6244687;22;8902;-73
2021/06/06 04:43:27;;;;;;;;;5.40;5.40;;;;;32.36;54.43;98501.50;6244655;22;8823;-73
2021/06/06 04:45:56;;;;;;;;;6.40;6.40;;;;;32.49;54.25;98500.91;6245330;22;8816;-73
2021/06/06 04:48:32;;;;;;;;;7.20;7.20;;;;;32.64;54.21;98499.41;6242043;23;8845;-73
2021/06/06 04:51:07;;;;;;;;;8.00;8.00;;;;;32.79;54.61;98489.75;6243255;22;8820;-74
2021/06/06 04:53:36;;;;;;;;;5.80;5.80;;;;;32.91;53.64;98488.34;6243444;22;8818;-74
2021/06/06 04:56:05;;;;;;;;;5.80;5.80;;;;;33.01;54.21;98495.56;6240857;23;8954;-74
2021/06/06 04:58:34;;;;;;;;;8.40;7.60;;;;;33.07;52.61;98491.13;6243131;22;8792;-73
2021/06/06 05:01:03;;;;;;;;;6.00;6.00;;;;;33.10;52.02;98484.81;6243689;22;8810;-73
2021/06/06 05:03:32;;;;;;;;;7.40;7.40;;;;;33.19;52.92;98486.97;6243928;22;9030;-73
2021/06/06 05:06:01;;;;;;;;;7.40;7.40;;;;;33.22;53.47;98483.38;6243590;22;8800;-73
2021/06/06 05:08:30;;;;;;;;;6.60;6.60;;;;;33.28;53.70;98478.94;6243607;22;8809;-73
2021/06/06 05:10:59;;;;;;;;;6.00;6.00;;;;;33.31;52.70;98469.94;6244014;22;8910;-73
2021/06/06 05:13:28;;;;;;;;;7.20;7.20;;;;;33.36;53.33;98466.69;6243861;22;8823;-73
2021/06/06 05:15:57;;;;;;;;;7.00;7.00;;;;;33.42;51.82;98464.22;6244197;22;8806;-74
2021/06/06 05:18:27;;;;;;;;;6.00;6.00;;;;;33.52;53.88;98474.13;6243851;22;8796;-73
2021/06/06 05:20:57;;;;;;;;;7.40;7.40;;;;;33.56;52.33;98463.88;6243967;22;8911;-74
2021/06/06 05:23:31;;;;;;;;;7.80;7.60;;;;;33.54;53.17;98447.13;6244228;22;8796;-74
2021/06/06 05:26:01;;;;;;;;;5.60;5.60;;;;;33.70;52.76;98463.53;6243504;22;8796;-74
2021/06/06 05:28:32;;;;;;;;;6.80;6.80;;;;;33.77;51.91;98462.59;6243396;22;8789;-73
2021/06/06 05:31:01;;;;;;;;;7.60;4.60;;;;;33.82;52.06;98454.63;6243343;22;9529;-73
2021/06/06 05:33:31;;;;;;;;;9.80;9.80;;;;;33.83;51.39;98444.47;6243610;22;8812;-71
2021/06/06 05:36:00;;;;;;;;;6.40;6.40;;;;;33.89;49.79;98437.25;6266648;22;8883;-72
2021/06/06 05:38:34;;;;;;;;;6.00;6.00;;;;;33.99;52.44;98438.94;6244098;22;8808;-73
2021/06/06 05:41:04;;;;;;;;;6.00;6.00;;;;;34.08;49.88;98435.59;6241978;23;8874;-72
2021/06/06 05:43:37;;;;;;;;;6.80;6.80;;;;;34.15;50.57;98430.69;6242963;22;8792;-74
2021/06/06 05:46:10;;;;;;;;;5.00;5.00;;;;;34.24;49.75;98416.38;6241954;22;8812;-73
2021/06/06 05:48:39;;;;;;;;;5.80;5.80;;;;;34.30;49.48;98412.69;6242347;22;8797;-73
2021/06/06 05:51:09;;;;;;;;;6.60;6.60;;;;;34.38;50.71;98407.81;6242474;22;8963;-72
2021/06/06 05:53:38;;;;;;;;;5.00;5.00;;;;;34.43;50.14;98399.06;6241824;22;8866;-72
2021/06/06 05:56:10;;;;;;;;;5.40;5.40;;;;;34.47;50.18;98391.50;6242414;23;8804;-72
2021/06/06 05:58:40;;;;;;;;;6.40;6.40;;;;;34.63;49.90;98391.41;6242040;22;8959;-73
2021/06/06 06:01:10;;;;;;;;;4.80;4.80;;;;;34.72;48.82;98388.03;6242840;22;8788;-73
2021/06/06 06:03:39;;;;;;;;;6.80;6.80;;;;;34.78;50.25;98382.78;6244445;22;8816;-73
2021/06/06 06:06:09;;;;;;;;;7.60;7.60;;;;;34.78;49.97;98378.06;6243969;22;8824;-74
2021/06/06 06:08:41;;;;;;;;;4.40;4.40;;;;;34.76;50.25;98357.78;6243678;22;8812;-73
2021/06/06 06:11:17;;;;;;;;;7.20;7.20;;;;;34.80;49.02;98361.94;6242353;22;8827;-73
2021/06/06 06:13:47;;;;;;;;;5.00;5.00;;;;;34.81;47.87;98340.81;6243589;22;8801;-74
2021/06/06 06:16:20;;;;;;;;;5.80;5.00;;;;;34.91;49.77;98342.47;6243984;22;8788;-73
2021/06/06 06:18:51;;;;;;;;;6.00;6.00;;;;;35.03;49.89;98344.41;6244775;22;8797;-76
2021/06/06 06:21:22;;;;;;;;;7.00;7.00;;;;;35.10;49.07;98343.44;6244529;22;8780;-74
2021/06/06 06:23:51;;;;;;;;;5.80;5.80;;;;;35.14;47.92;98330.34;6244115;22;8890;-71
2021/06/06 06:26:22;;;;;;;;;4.00;4.00;;;;;35.21;50.17;98324.63;6244149;22;8788;-76
2021/06/06 06:28:51;;;;;;;;;8.00;8.00;;;;;35.30;49.02;98314.53;6244127;22;8789;-75
2021/06/06 06:31:20;;;;;;;;;7.60;7.60;;;;;35.36;45.67;98311.22;6244301;22;8796;-76
2021/06/06 06:33:50;;;;;;;;;7.00;7.00;;;;;35.39;48.82;98302.88;6244241;22;8851;-76
2021/06/06 06:36:21;;;;;;;;;6.20;6.20;;;;;35.37;48.47;98301.78;6244502;22;8793;-74
2021/06/06 06:38:51;;;;;;;;;6.00;6.00;;;;;35.36;48.41;98295.53;6243620;22;8896;-74
2021/06/06 06:41:24;;;;;;;;;5.00;5.00;;;;;35.45;47.36;98295.63;6244362;22;8808;-71
2021/06/06 06:43:54;;;;;;;;;6.20;6.20;;;;;35.55;47.28;98291.75;6244244;22;8804;-73
2021/06/06 06:46:24;;;;;;;;;5.80;5.80;;;;;35.62;46.95;98286.00;6244485;22;8836;-73
2021/06/06 06:48:55;;;;;;;;;5.00;5.00;;;;;35.73;48.81;98288.38;6244915;22;8789;-72
2021/06/06 06:51:26;;;;;;;;;5.20;5.20;;;;;35.81;49.13;98275.19;6242063;23;8789;-72
2021/06/06 06:53:56;;;;;;;;;5.80;5.80;;;;;35.86;47.21;98271.88;6242431;23;8804;-72
2021/06/06 06:56:27;;;;;;;;;6.00;6.00;;;;;35.97;47.88;98264.00;6244378;22;8804;-71
2021/06/06 06:58:57;;;;;;;;;5.00;5.00;;;;;36.02;47.71;98266.16;6243070;23;8862;-72
2021/06/06 07:01:27;;;;;;;;;8.20;8.20;;;;;36.04;46.74;98266.47;6241950;23;8910;-72
2021/06/06 07:03:58;;;;;;;;;6.80;6.80;;;;;35.97;47.38;98272.22;6243875;22;8812;-73
2021/06/06 07:06:27;;;;;;;;;6.20;6.20;;;;;35.93;45.82;98268.84;6243857;22;8804;-72
2021/06/06 07:08:56;;;;;;;;;4.80;4.80;;;;;35.84;47.41;98266.06;6242297;23;8812;-72
2021/06/06 07:11:26;;;;;;;;;5.40;5.40;;;;;35.78;45.68;98252.13;6243693;22;8801;-72
2021/06/06 07:13:54;;;;;;;;;5.60;4.80;;;;;35.72;47.25;98250.41;6243664;22;8812;-73
2021/06/06 07:16:23;;;;;;;;;7.00;7.00;;;;;35.72;44.93;98245.66;6243958;22;8866;-73
2021/06/06 07:18:52;;;;;;;;;5.60;5.60;;;;;35.57;45.55;98220.72;6243641;22;8809;-74
2021/06/06 07:21:23;;;;;;;;;7.00;7.00;;;;;35.64;46.07;98225.19;6244118;22;8808;-74
2021/06/06 07:23:52;;;;;;;;;4.80;4.80;;;;;35.61;47.88;98226.09;6243455;22;9605;-74
2021/06/06 07:26:45;;;;;;;;;8.80;8.80;;;;;35.49;46.86;98208.47;6243629;22;8823;-73
2021/06/06 07:29:17;;;;;;;;;7.00;7.00;;;;;35.44;48.42;98220.03;6243700;22;8797;-74
2021/06/06 07:31:48;;;;;;;;;5.20;5.20;;;;;35.36;48.57;98217.97;6243747;22;9525;-74
2021/06/06 07:34:18;;;;;;;;;4.80;4.80;;;;;35.19;45.62;98212.66;6243753;22;8812;-74
2021/06/06 07:36:47;;;;;;;;;5.60;5.60;;;;;35.06;45.77;98201.00;6244037;22;8811;-74
2021/06/06 07:39:16;;;;;;;;;5.80;5.80;;;;;34.94;48.21;98205.31;6242823;23;8878;-73
2021/06/06 07:41:46;;;;;;;;;4.00;4.00;;;;;34.81;48.20;98203.81;6245086;22;8819;-72
2021/06/06 07:44:16;;;;;;;;;3.00;3.00;;;;;34.72;48.13;98206.44;6244939;22;8890;-73
2021/06/06 07:46:45;;;;;;;;;4.20;4.20;;;;;34.68;48.22;98193.63;6251385;22;8800;-72
2021/06/06 07:49:15;;;;;;;;;5.80;5.80;;;;;34.72;47.88;98188.03;6245978;22;8804;-75
2021/06/06 07:51:44;;;;;;;;;5.00;5.00;;;;;34.82;47.91;98177.94;6244850;22;8903;-73
2021/06/06 07:54:13;;;;;;;;;4.00;4.00;;;;;34.95;48.57;98168.47;6245093;22;8903;-73
2021/06/06 07:56:42;;;;;;;;;2.60;2.60;;;;;35.08;47.29;98170.41;6245770;22;8793;-74
2021/06/06 07:59:11;;;;;;;;;3.00;3.00;;;;;35.27;46.56;98167.31;6245704;22;9600;-75
2021/06/06 08:01:41;;;;;;;;;4.00;4.00;;;;;35.41;46.18;98160.59;6245508;22;8808;-73
2021/06/06 08:04:14;;;;;;;;;5.80;5.80;;;;;35.58;46.19;98164.66;6245090;22;8812;-73
2021/06/06 08:06:44;;;;;;;;;5.40;5.40;;;;;35.66;46.15;98156.16;6245148;22;8850;-74
2021/06/06 08:09:14;;;;;;;;;2.80;2.80;;;;;35.77;44.90;98151.78;6244959;22;8784;-74
2021/06/06 08:11:43;;;;;;;;;3.00;3.00;;;;;35.89;45.90;98148.22;6245069;22;8820;-73
2021/06/06 08:14:12;;;;;;;;;1.80;1.80;;;;;35.95;45.31;98162.88;6244933;22;8808;-72
2021/06/06 08:16:42;;;;;;;;;3.80;3.80;;;;;36.05;44.22;98157.44;6245297;22;8899;-72
2021/06/06 08:19:11;;;;;;;;;2.40;2.40;;;;;36.11;46.57;98159.13;6244786;22;8838;-73
2021/06/06 08:21:44;;;;;;;;;3.00;3.00;;;;;36.19;44.91;98146.66;6245039;22;8796;-73
2021/06/06 08:24:14;;;;;;;;;3.00;3.00;;;;;36.20;43.56;98122.69;6244781;22;8902;-73
2021/06/06 08:26:44;;;;;;;;;3.40;3.40;;;;;36.30;43.35;98121.53;6244803;22;8836;-75
2021/06/06 08:29:13;;;;;;;;;2.60;2.60;;;;;36.35;43.92;98118.19;6244667;22;8789;-75
2021/06/06 08:31:49;;;;;;;;;2.60;2.60;;;;;36.40;45.05;98103.06;6244364;22;8811;-76
2021/06/06 08:34:21;;;;;;;;;3.40;3.40;;;;;36.36;42.02;98089.50;6244313;22;8804;-75
2021/06/06 08:36:53;;;;;;;;;5.20;3.80;;;;;36.44;43.96;98098.16;6244390;22;8812;-75
2021/06/06 08:39:28;;;;;;;;;7.00;6.60;;;;;36.46;44.74;98093.75;6242771;22;8812;-75
2021/06/06 08:41:59;;;;;;;;;6.00;6.00;;;;;36.53;43.35;98089.94;6242429;22;8808;-76
2021/06/06 08:44:36;;;;;;;;;5.40;5.40;;;;;36.55;41.96;98098.50;6244453;22;8804;-74
2021/06/06 08:47:18;;;;;;;;;7.40;7.40;;;;;36.57;44.60;98101.53;6244513;22;9607;-75
2021/06/06 08:49:56;;;;;;;;;9.80;9.80;;;;;36.46;45.97;98118.47;6242960;23;8907;-76
2021/06/06 08:52:44;;;;;;;;;23.60;23.60;;;;;36.35;45.94;98136.63;6244246;22;8801;-74
2021/06/06 08:55:32;;;;;;;;;7.00;7.00;;;;;36.09;47.07;98138.84;6243894;22;8919;-75
2021/06/06 08:58:23;;;;;;;;;6.00;6.00;;;;;35.76;46.90;98153.00;6244553;22;8823;-75
2021/06/06 09:01:02;;;;;;;;;4.80;4.80;;;;;35.43;46.99;98151.91;6243928;22;8792;-75
2021/06/06 09:03:31;;;;;;;;;8.00;8.00;;;;;35.15;47.81;98142.69;6244506;22;8915;-76
2021/06/06 09:06:10;;;;;;;;;5.00;5.00;;;;;34.90;48.46;98166.28;6244425;22;9680;-75
2021/06/06 09:08:39;;;;;;;;;8.40;8.40;;;;;34.66;48.91;98157.69;6244426;22;8789;-75
2021/06/06 09:11:14;;;;;;;;;6.60;6.60;;;;;34.48;49.98;98156.72;6244340;22;8874;-73
2021/06/06 09:13:44;;;;;;;;;8.00;8.00;;;;;34.32;48.93;98130.25;6245011;22;8784;-75
2021/06/06 09:16:21;;;;;;;;;6.80;6.80;;;;;34.14;49.78;98127.28;6245501;22;8903;-74
2021/06/06 09:19:12;;;;;;;;;6.40;6.40;;;;;33.97;49.71;98132.88;6243869;22;8903;-74
2021/06/06 09:21:52;;;;;;;;;7.80;7.80;;;;;33.88;50.98;98148.41;6244848;22;8835;-74
2021/06/06 09:24:44;;;;;;;;;7.40;7.40;;;;;33.72;50.67;98150.06;6244615;22;8785;-74
2021/06/06 09:27:23;;;;;;;;;6.20;6.20;;;;;33.51;51.33;98155.38;6244908;22;8808;-74
2021/06/06 09:30:15;;;;;;;;;6.40;6.40;;;;;33.26;50.67;98162.28;6244963;22;9571;-74
2021/06/06 09:32:45;;;;;;;;;5.20;5.20;;;;;32.91;51.07;98146.84;6245283;22;8797;-73
2021/06/06 09:35:24;;;;;;;;;5.40;5.40;;;;;32.65;51.70;98156.84;6244937;22;9506;-73
2021/06/06 09:38:12;;;;;;;;;5.60;5.60;;;;;32.40;51.81;98143.81;6245012;22;8903;-73
2021/06/06 09:40:47;;;;;;;;;2.20;2.20;;;;;32.12;52.25;98147.97;6244598;22;8820;-73
2021/06/06 09:43:26;;;;;;;;;4.20;4.20;;;;;31.84;52.68;98143.16;6244827;22;8816;-73
2021/06/06 09:46:17;;;;;;;;;5.60;5.60;;;;;31.59;53.01;98158.06;6244861;22;8804;-72
2021/06/06 09:48:49;;;;;;;;;5.20;5.20;;;;;31.39;53.22;98154.56;6244279;22;8816;-72
2021/06/06 09:51:35;;;;;;;;;5.00;5.00;;;;;31.14;53.80;98152.34;6244403;22;9545;-73
2021/06/06 09:54:19;;;;;;;;;5.40;5.40;;;;;30.84;54.11;98145.09;6244485;22;8830;-73
2021/06/06 09:56:54;;;;;;;;;7.00;7.00;;;;;30.67;54.64;98146.94;6244460;22;8812;-73
2021/06/06 09:59:36;;;;;;;;;3.20;3.20;;;;;30.51;55.02;98139.41;6244137;22;8804;-74
2021/06/06 10:02:11;;;;;;;;;6.00;6.00;;;;;30.40;55.14;98136.06;6243941;22;8812;-73
2021/06/06 10:04:46;;;;;;;;;4.60;4.60;;;;;30.26;55.15;98138.25;6244250;22;8835;-74
2021/06/06 10:07:27;;;;;;;;;4.40;4.40;;;;;30.20;55.48;98143.41;6244278;22;8796;-73
2021/06/06 10:09:58;;;;;;;;;4.20;4.20;;;;;30.10;55.38;98136.16;6244543;22;8860;-74
2021/06/06 10:12:42;;;;;;;;;4.20;4.20;;;;;30.09;55.21;98135.38;6268233;22;8883;-73
2021/06/06 10:15:17;;;;;;;;;5.00;5.00;;;;;30.05;55.43;98134.69;6244628;22;8903;-73
2021/06/06 10:18:02;;;;;;;;;5.00;5.00;;;;;30.04;55.86;98148.69;6244345;22;8788;-73
2021/06/06 10:20:36;;;;;;;;;5.50;5.50;;;;;30.00;55.51;98154.19;6243798;22;8812;-74
2021/06/06 10:23:07;;;;;;;;;3.75;3.75;;;;;30.11;55.72;98175.78;6243218;22;8885;-74
2021/06/06 10:25:50;;;;;;;;;4.00;4.00;;;;;30.14;54.94;98188.56;6244097;22;8812;-75
2021/06/06 10:28:40;;;;;;;;;5.75;5.75;;;;;30.19;56.13;98188.09;6243917;22;8815;-74
2021/06/06 10:31:21;;;;;;;;;5.75;5.25;;;;;30.27;54.94;98205.09;6244302;23;8931;-74
2021/06/06 10:34:12;;;;;;;;;6.75;6.75;;;;;30.26;54.90;98209.00;6244397;22;8827;-75
2021/06/06 10:36:43;;;;;;;;;5.25;5.25;;;;;30.20;55.11;98205.97;6243611;22;8881;-74
2021/06/06 10:39:22;;;;;;;;;5.25;5.25;;;;;30.12;55.58;98215.41;6243802;22;8900;-75
2021/06/06 10:41:54;;;;;;;;;5.00;5.00;;;;;30.05;59.05;98213.56;6243408;22;8903;-75
2021/06/06 10:44:33;;;;;;;;;7.25;7.25;;;;;30.09;55.76;98210.78;6244309;22;8804;-75
2021/06/06 10:47:16;;;;;;;;;5.00;5.00;;;;;30.12;56.36;98212.69;6243832;22;8938;-75
2021/06/06 10:49:55;;;;;;;;;3.75;3.75;;;;;30.14;55.39;98208.38;6242521;23;8804;-73
2021/06/06 10:52:38;;;;;;;;;4.25;4.25;;;;;30.16;54.93;98206.00;6244590;22;8812;-74
2021/06/06 10:55:23;;;;;;;;;5.25;5.25;;;;;30.27;54.70;98210.53;6244531;22;8808;-75
2021/06/06 10:57:53;;;;;;;;;4.00;4.00;;;;;30.32;54.09;98199.97;6244400;22;8819;-74
2021/06/06 11:00:35;;;;;;;;;3.00;3.00;;;;;30.41;54.42;98211.09;6244496;22;8800;-75
2021/06/06 11:03:07;;;;;;;;;7.75;7.75;;;;;30.44;55.48;98207.56;6244008;22;8792;-75
2021/06/06 11:05:53;;;;;;;;;5.75;5.75;;;;;30.48;56.73;98205.53;6243853;22;8820;-74
2021/06/06 11:08:28;;;;;;;;;7.00;7.00;;;;;30.49;57.24;98200.88;6244067;22;8820;-74
2021/06/06 11:11:12;;;;;;;;;4.75;4.75;;;;;30.50;54.76;98203.19;6243850;22;8801;-73
2021/06/06 11:13:41;;;;;;;;;7.00;7.00;;;;;30.49;56.77;98207.09;6244179;22;8907;-76
2021/06/06 11:16:16;;;;;;;;;6.50;6.50;;;;;30.50;55.43;98207.84;6243977;22;8950;-78
2021/06/06 11:18:50;;;;;;;;;7.75;7.75;;;;;30.45;55.82;98202.88;6242580;22;9486;-76
2021/06/06 11:21:45;;;;;;;;;7.25;7.25;;;;;30.45;54.94;98202.88;6242824;22;8870;-76
2021/06/06 11:24:33;;;;;;;;;10.50;10.50;;;;;30.41;55.55;98211.09;6243449;22;8887;-76
2021/06/06 11:27:11;;;;;;;;;12.25;12.25;;;;;30.40;55.09;98211.50;6241561;22;8807;-75
2021/06/06 11:30:02;;;;;;;;;9.50;9.50;;;;;30.38;54.76;98202.97;6243282;22;8935;-76
2021/06/06 11:32:44;;;;;;;;;6.00;6.00;;;;;30.43;54.49;98211.44;6246552;22;8804;-75
2021/06/06 11:35:31;;;;;;;;;10.50;10.50;;;;;30.47;53.85;98214.88;6245631;22;8895;-75
2021/06/06 11:38:13;;;;;;;;;7.25;6.75;;;;;30.53;54.06;98207.03;6245857;22;8800;-75
2021/06/06 11:40:50;;;;;;;;;10.75;10.75;;;;;30.59;54.35;98215.53;6244687;22;8816;-75
2021/06/06 11:43:34;;;;;;;;;11.75;11.75;;;;;30.51;55.67;98199.28;6243572;23;8858;-74
2021/06/06 11:46:16;;;;;;;;;12.50;10.75;;;;;30.64;55.49;98223.22;6244106;22;8832;-75
2021/06/06 11:49:00;;;;;;;;;10.25;10.25;;;;;30.63;56.05;98221.69;6245577;22;8816;-76
2021/06/06 11:51:40;;;;;;;;;8.00;8.00;;;;;30.59;57.28;98227.19;6243123;23;8816;-76
2021/06/06 11:54:21;;;;;;;;;10.00;10.00;;;;;30.61;57.65;98235.72;6245850;22;8901;-74
2021/06/06 11:56:53;;;;;;;;;7.50;7.25;;;;;30.63;56.36;98229.84;6243291;23;8863;-76
2021/06/06 11:59:39;;;;;;;;;6.25;6.25;;;;;30.58;54.84;98233.03;6244698;22;9587;-76
2021/06/06 12:02:24;;;;;;;;;3.50;3.50;;;;;30.54;55.18;98243.97;6244166;23;8816;-75
2021/06/06 12:04:57;;;;;;;;;8.00;8.00;;;;;30.39;55.63;98231.72;6242944;22;8840;-77
2021/06/06 12:07:35;;;;;;;;;6.75;6.75;;;;;30.39;55.55;98257.00;6243538;22;8809;-78
2021/06/06 12:10:04;;;;;;;;;16.25;15.25;;;;;30.26;55.21;98242.41;6243778;23;8911;-75
2021/06/06 12:12:39;;;;;;;;;9.50;8.00;;;;;30.29;55.42;98247.03;6243711;22;8784;-75